Terminal Aerodrome Forecast
Issued by NWS

Home | Current Version | Previous Version | Text Only | Print | Product List | Glossary On
Versions: 1 2 3 4 5 6 7 8 9 10 11 12 13 14 15 16 17
000
FTUS43 KEAX 251400 AAA
TAFMKC
TAF AMD
KMKC 251405Z 2514/2612 15008KT P6SM SCT035 BKN070
      TEMPO 2514/2515 -RA
     FM251700 18013G21KT P6SM BKN040
     FM252300 18010KT P6SM SCT040 BKN250
     FM260600 19008KT P6SM BKN080=

USA.gov is the U.S. government's official web portal to all federal, state and local government web resources and services.